San Rafael, CA

9:52 PM PDT on October 25, 2014 (GMT -0700)
Belle Avenue | Change Station
CLOSE
Current Station
Personal Weather Station
Location: San Rafael, CA
Elevation: 256 ft
Nearby Weather Stations

Elev 256 ft 37.97 °N, 122.51 °W | Updated 2 minutes ago

Partly Cloudy
Partly Cloudy
56.1 °F
Feels Like 56.1 °F
N
0.0
Wind Variable Wind from SSW
Gusts 0.0 mph

Today
High -- | Low -- °F
--% Chance of Precip.
Yesterday
High -- | Low -- °F
Precip. -- in
7:28 AM 6:19 PM
Waxing Crescent, 6% visible
Pressure 30.14 in
Visibility 7.0 miles
Clouds Mostly Cloudy 1600 ft
Mostly Cloudy 2400 ft
Overcast 5500 ft
Dew Point 48 °F
Humidity 75%
Rainfall 0.18 in
Snow Depth Not available.
UV 0 out of 12
Pollen .10 out of 12
PM2.5 Good
Flu Activity Sporadic
METAR KO69 260435Z AUTO 00000KT 7SM BKN016 BKN024 OVC055 14/13 A3014 RMK AO1

More Conditions Fewer Conditions

Pressure 30.14 in
Visibility 7.0 miles
Clouds Mostly Cloudy 1600 ft
Mostly Cloudy 2400 ft
Overcast 5500 ft
Dew Point 48 °F
Humidity 75%
Rainfall 0.18 in
Snow Depth Not available.
UV 0 out of 12
Pollen .10 out of 12
PM2.5 Good
Flu Activity Sporadic
METAR KO69 260435Z AUTO 00000KT 7SM BKN016 BKN024 OVC055 14/13 A3014 RMK AO1

More Conditions Fewer Conditions

10-Day Weather Forecast

Almanac

Astronomy

Oct. 25, 2014 Rise Set
Actual Time 7:28 AM PDT 6:19 PM PDT
Civil Twilight 7:01 AM PDT 6:45 PM PDT
Nautical Twilight 6:30 AM PDT 7:16 PM PDT
Astronomical Twilight 6:00 AM PDT 7:47 PM PDT
Moon 9:11 AM PDT (10/25) 7:47 PM PDT (10/25)
Length of Visible Light 11h 44m
Length of Day
10h 50m
Tomorrow will be 2m 15s shorter.
Waxing Crescent, 6% of the Moon is Illuminated
Oct 26
Waxing Crescent
Oct 30
First Quarter
Nov 6
Full
Nov 14
Last Quarter
Nov 22
New

Yesterday's Extremes

State Highs State Lows

Community

WunderPhotos

Upload Photos

1,765,111 photos uploaded!

Nearby

Air Quality

  Air Quality AQ Index Pollutant
Yesterday Good
OZONE
Yesterday Good
PM2.5
Current Good
PM2.5
Saturday Good
OZONE
Sunday Moderate
PM2.5
Monday Moderate
PM2.5
Tuesday Moderate
PM2.5
Wednesday Moderate
PM2.5

Snow Depth

Station Depth Elevation
Echo Peak 0 in 7800 ft
Carson Pass 1 in 8500 ft
Ward Creek #3 1 in 6750 ft
Rubicon #2 2 in 7500 ft
Blue Lakes 0 in 8000 ft

Earthquake Activity

City Distance Mag. Time & Date
Antioch, California 38 miles 2.7 6:42 AM PDT
2014-10-25
Deer Park, California 38 miles 2.8 6:40 AM PDT
2014-10-25
Minimum magnitude displayed is 2.5.

Coastal Water Temperatures

Place Temperature
San Francisco, CA 64.0 °F
Richmond, CA 64.0 °F
Port Chicago, CA 66.0 °F

Nearby Weather Stations